Time;durP1;ratioP1;P1;durP2;ratioP2;P2;SDS_P1;SDS_P2;PMS_P1;PMS_P2;Temp;Humidity;BMP_temperature;BMP_pressure;BME280_temperature;BME280_humidity;BME280_pressure;Samples;Min_cycle;Max_cycle;Signal;HPM_P1;HPM_P2
2022/01/03 00:01:03;;;;;;;23.23;4.50;;;;;;;7.70;100.00;97912.75;4947886;29;20049;-85
2022/01/03 00:03:28;;;;;;;22.85;4.25;;;;;;;7.75;100.00;97904.31;4929909;29;20058;-85
2022/01/03 00:05:54;;;;;;;28.27;4.53;;;;;;;7.94;100.00;97901.84;4925361;29;20055;-87
2022/01/03 00:08:20;;;;;;;18.85;3.40;;;;;;;7.87;100.00;97894.03;4931721;29;20073;-84
2022/01/03 00:10:46;;;;;;;34.15;5.72;;;;;;;7.88;100.00;97934.81;4943766;29;20078;-88
2022/01/03 00:13:12;;;;;;;27.55;4.30;;;;;;;7.68;100.00;97903.53;4941095;29;20027;-86
2022/01/03 00:15:37;;;;;;;27.45;4.63;;;;;;;7.46;100.00;97895.91;4925080;29;20046;-86
2022/01/03 00:18:04;;;;;;;23.48;4.53;;;;;;;7.67;100.00;97920.22;4924257;29;20043;-85
2022/01/03 00:20:29;;;;;;;24.77;4.60;;;;;;;7.44;100.00;97897.91;4930313;29;20036;-87
2022/01/03 00:22:57;;;;;;;23.00;4.32;;;;;;;7.47;100.00;97887.09;4931591;29;20050;-85
2022/01/03 00:25:24;;;;;;;29.20;6.68;;;;;;;7.39;100.00;97892.50;4946860;29;20063;-86
2022/01/03 00:28:09;;;;;;;28.58;4.55;;;;;;;7.42;100.00;97908.56;4943627;28;20425;-86
2022/01/03 00:30:37;;;;;;;22.52;4.68;;;;;;;7.33;100.00;97888.88;4927758;29;20036;-85
2022/01/03 00:33:04;;;;;;;32.42;4.78;;;;;;;7.48;100.00;97904.34;4944280;29;20081;-86
2022/01/03 00:35:33;;;;;;;40.08;5.72;;;;;;;7.37;100.00;97902.34;4927864;29;20035;-86
2022/01/03 00:38:00;;;;;;;32.60;4.93;;;;;;;7.37;100.00;97907.56;4944098;29;20059;-87
2022/01/03 00:40:26;;;;;;;30.10;5.28;;;;;;;7.52;100.00;97913.38;4947072;29;20377;-87
2022/01/03 00:42:52;;;;;;;21.40;4.13;;;;;;;7.38;100.00;97877.84;4928831;29;20492;-85
2022/01/03 00:45:18;;;;;;;31.23;4.38;;;;;;;7.42;100.00;97905.16;4935232;29;20047;-85
2022/01/03 00:47:45;;;;;;;37.65;5.38;;;;;;;7.52;100.00;97900.34;4929416;29;20039;-85
2022/01/03 00:50:19;;;;;;;26.58;4.80;;;;;;;7.39;100.00;97879.44;4948268;29;20434;-86
2022/01/03 00:52:45;;;;;;;27.30;4.65;;;;;;;7.46;100.00;97895.91;4946879;29;20059;-88
2022/01/03 00:55:12;;;;;;;22.13;4.68;;;;;;;7.49;100.00;97908.56;4945011;29;20486;-86
2022/01/03 00:57:56;;;;;;;26.23;4.22;;;;;;;7.51;100.00;97913.56;4934282;29;20601;-88
2022/01/03 01:00:22;;;;;;;29.65;5.00;;;;;;;7.47;100.00;97907.16;4933123;29;20075;-87
2022/01/03 01:03:09;;;;;;;27.15;4.60;;;;;;;7.49;100.00;97915.59;4935825;29;20074;-85
2022/01/03 01:05:37;;;;;;;23.05;3.28;;;;;;;7.55;100.00;97925.22;4925309;29;20043;-87
2022/01/03 01:08:03;;;;;;;21.27;4.18;;;;;;;7.53;100.00;97925.44;4947114;29;20047;-86
2022/01/03 01:10:33;;;;;;;27.70;4.00;;;;;;;7.55;100.00;97918.19;4949086;29;20473;-85
2022/01/03 01:13:03;;;;;;;26.55;3.95;;;;;;;7.57;100.00;97916.19;4943925;29;20122;-84
2022/01/03 01:15:31;;;;;;;19.73;3.40;;;;;;;7.45;100.00;97902.13;4928048;29;20038;-85
2022/01/03 01:17:58;;;;;;;25.40;4.82;;;;;;;7.39;100.00;97900.34;4950760;29;20560;-86
2022/01/03 01:20:25;;;;;;;24.50;4.22;;;;;;;7.54;100.00;97931.44;4951160;29;20043;-85
2022/01/03 01:22:52;;;;;;;22.35;3.60;;;;;;;7.47;100.00;97928.88;4946545;29;20036;-85
2022/01/03 01:27:49;;;;;;;19.08;4.10;;;;;;;7.62;100.00;97931.25;4946129;29;20498;-87
2022/01/03 01:30:19;;;;;;;20.45;3.67;;;;;;;7.58;100.00;97933.47;4944587;29;20034;-86
2022/01/03 01:33:01;;;;;;;22.95;3.65;;;;;;;7.48;100.00;97932.25;4946662;28;20035;-89
2022/01/03 01:35:40;;;;;;;20.20;3.72;;;;;;;7.41;100.00;97924.44;4945980;29;20134;-85
2022/01/03 01:38:09;;;;;;;17.17;3.50;;;;;;;7.31;100.00;97934.47;4942131;29;20020;-84
2022/01/03 01:40:49;;;;;;;17.42;3.83;;;;;;;7.16;100.00;97904.16;4929203;29;20553;-85
2022/01/03 01:43:25;;;;;;;26.40;4.03;;;;;;;7.17;100.00;97933.66;4950825;29;20039;-85
2022/01/03 01:45:52;;;;;;;20.30;3.25;;;;;;;7.21;100.00;97927.06;4952264;29;20043;-87
2022/01/03 01:48:22;;;;;;;24.17;4.15;;;;;;;7.35;100.00;97935.69;4931234;29;20039;-86
2022/01/03 01:50:51;;;;;;;22.58;3.53;;;;;;;7.40;100.00;97928.03;4929406;29;20406;-86
2022/01/03 01:53:27;;;;;;;18.40;3.38;;;;;;;7.64;100.00;97944.09;4931694;29;20035;-86
2022/01/03 01:55:56;;;;;;;20.00;3.83;;;;;;;7.52;100.00;97910.78;4932684;29;20115;-86
2022/01/03 01:58:42;;;;;;;18.70;3.47;;;;;;;7.47;100.00;97910.59;4948350;29;20051;-86
2022/01/03 02:01:12;;;;;;;18.60;3.15;;;;;;;7.51;100.00;97927.44;4953667;29;20438;-85
2022/01/03 02:04:08;;;;;;;17.50;3.70;;;;;;;7.46;100.00;97934.28;4946262;29;20042;-86
2022/01/03 02:06:44;;;;;;;19.48;3.10;;;;;;;7.29;100.00;97922.44;4942948;29;20132;-87
2022/01/03 02:09:48;;;;;;;21.30;2.97;;;;;;;7.35;100.00;97946.13;4947490;29;20031;-84
2022/01/03 02:12:16;;;;;;;31.67;4.03;;;;;;;7.24;100.00;97930.03;4883143;29;20074;-84
2022/01/03 02:14:44;;;;;;;16.95;3.38;;;;;;;7.16;100.00;97932.88;4928938;29;20036;-84
2022/01/03 02:17:10;;;;;;;18.02;3.47;;;;;;;7.24;100.00;97950.13;4930019;29;20032;-85
2022/01/03 02:19:38;;;;;;;18.27;3.72;;;;;;;7.32;100.00;97946.53;4948661;28;20031;-86
2022/01/03 02:22:04;;;;;;;17.75;3.42;;;;;;;7.26;100.00;97941.09;4926081;29;20028;-84
2022/01/03 02:24:30;;;;;;;22.38;4.20;;;;;;;7.21;100.00;97935.66;4934071;29;20062;-85
2022/01/03 02:26:56;;;;;;;24.38;4.93;;;;;;;7.22;100.00;97933.88;4925129;29;20036;-86
2022/01/03 02:29:22;;;;;;;21.45;4.28;;;;;;;7.08;100.00;97948.72;4933168;29;20035;-85
2022/01/03 02:31:50;;;;;;;19.88;4.20;;;;;;;7.08;100.00;97918.19;4942798;29;20043;-85
2022/01/03 02:34:16;;;;;;;19.05;3.70;;;;;;;7.17;100.00;97924.03;4932752;29;20391;-84
2022/01/03 02:36:44;;;;;;;23.30;4.22;;;;;;;7.20;100.00;97934.06;4948935;29;20031;-86
2022/01/03 02:39:10;;;;;;;19.40;4.90;;;;;;;7.09;100.00;97913.78;4929487;29;20032;-85
2022/01/03 02:41:36;;;;;;;29.50;4.95;;;;;;;7.21;100.00;97924.44;4949130;29;20027;-86
2022/01/03 02:44:01;;;;;;;21.02;3.92;;;;;;;7.14;100.00;97921.81;4927862;29;20054;-86
2022/01/03 02:46:27;;;;;;;18.67;4.90;;;;;;;7.19;100.00;97916.00;4943655;29;20166;-87
2022/01/03 02:48:53;;;;;;;25.15;5.05;;;;;;;7.17;100.00;97913.59;4928505;29;20114;-84
2022/01/03 02:51:18;;;;;;;25.73;3.78;;;;;;;7.28;100.00;97930.47;4927235;29;20039;-86
2022/01/03 02:53:44;;;;;;;21.33;3.80;;;;;;;7.13;100.00;97913.19;4932693;29;20051;-88
2022/01/03 02:56:10;;;;;;;21.35;4.13;;;;;;;7.18;100.00;97896.13;4933345;29;20070;-86
2022/01/03 02:58:35;;;;;;;25.13;4.68;;;;;;;7.28;100.00;97918.22;4948713;29;20118;-86
2022/01/03 03:01:01;;;;;;;21.00;3.80;;;;;;;7.16;100.00;97891.09;4948438;29;20055;-87
2022/01/03 03:03:27;;;;;;;24.70;4.63;;;;;;;7.18;100.00;97906.56;4927259;29;20450;-87
2022/01/03 03:05:53;;;;;;;21.38;4.65;;;;;;;7.18;100.00;97909.97;4940407;28;20069;-87
2022/01/03 03:08:19;;;;;;;28.10;4.47;;;;;;;7.21;100.00;97919.22;4930235;29;20155;-87
2022/01/03 03:10:45;;;;;;;24.08;4.68;;;;;;;7.15;100.00;97920.81;4945285;29;20493;-85
2022/01/03 03:13:11;;;;;;;21.35;3.88;;;;;;;7.10;100.00;97928.44;4945150;29;20035;-87
2022/01/03 03:15:37;;;;;;;33.08;4.35;;;;;;;7.09;100.00;97924.25;4940624;29;20067;-84
2022/01/03 03:18:03;;;;;;;32.35;5.78;;;;;;;7.04;100.00;97913.56;4930222;29;20023;-87
2022/01/03 03:20:31;;;;;;;24.45;4.20;;;;;;;7.00;100.00;97902.75;4944622;29;20074;-86
2022/01/03 03:22:58;;;;;;;26.00;4.10;;;;;;;7.12;100.00;97926.44;4942441;29;20027;-87
2022/01/03 03:25:27;;;;;;;28.73;4.72;;;;;;;7.15;100.00;97905.94;4943512;29;20046;-86
2022/01/03 03:28:00;;;;;;;26.65;4.25;;;;;;;7.08;100.00;97904.38;4944430;29;20027;-87
2022/01/03 03:30:30;;;;;;;21.42;3.53;;;;;;;7.00;100.00;97903.53;4928555;29;20505;-85
2022/01/03 03:33:01;;;;;;;24.58;4.57;;;;;;;6.94;100.00;97922.59;4947425;29;20031;-87
2022/01/03 03:35:27;;;;;;;24.13;3.70;;;;;;;7.04;100.00;97916.19;4946561;29;20062;-88
2022/01/03 03:37:53;;;;;;;34.10;5.85;;;;;;;6.96;100.00;97891.09;4949921;29;20035;-88
2022/01/03 03:40:19;;;;;;;22.27;4.45;;;;;;;7.15;100.00;97907.78;4950471;29;20023;-90
2022/01/03 03:42:45;;;;;;;37.60;4.35;;;;;;;7.23;100.00;97904.94;4931303;29;20501;-86
2022/01/03 03:45:11;;;;;;;25.05;4.63;;;;;;;7.24;100.00;97909.16;4930194;29;20043;-86
2022/01/03 03:47:37;;;;;;;19.58;4.15;;;;;;;7.33;100.00;97906.38;4930683;29;20035;-87
2022/01/03 03:50:04;;;;;;;23.67;4.85;;;;;;;7.42;100.00;97905.97;4949995;29;20042;-86
2022/01/03 03:52:30;;;;;;;25.23;4.45;;;;;;;7.50;100.00;97907.56;4941828;29;20048;-86
2022/01/03 03:54:55;;;;;;;24.02;4.05;;;;;;;7.34;100.00;97882.66;4941662;29;20035;-86
2022/01/03 03:57:21;;;;;;;26.02;4.90;;;;;;;7.43;100.00;97891.09;4941069;29;20091;-87
2022/01/03 03:59:48;;;;;;;27.13;4.78;;;;;;;7.38;100.00;97880.47;4926401;29;20078;-86
2022/01/03 04:02:14;;;;;;;29.48;4.18;;;;;;;7.26;100.00;97877.66;4936381;29;20095;-86
2022/01/03 04:04:39;;;;;;;34.10;5.80;;;;;;;7.33;100.00;97882.88;4945926;29;20110;-88
2022/01/03 04:07:05;;;;;;;14.35;3.40;;;;;;;7.48;100.00;97899.13;4944030;29;20031;-87
2022/01/03 04:09:31;;;;;;;26.30;5.38;;;;;;;7.42;100.00;97889.47;4948941;29;20035;-89
2022/01/03 04:11:57;;;;;;;32.67;4.72;;;;;;;7.51;100.00;97882.25;4929516;29;20119;-88
2022/01/03 04:14:22;;;;;;;30.33;4.63;;;;;;;7.60;100.00;97875.81;4930089;29;20031;-87
2022/01/03 04:16:48;;;;;;;19.63;3.75;;;;;;;7.74;100.00;97891.44;4949585;29;20039;-86
2022/01/03 04:19:20;;;;;;;26.95;4.03;;;;;;;7.69;100.00;97886.84;4941274;29;20473;-88
2022/01/03 04:21:46;;;;;;;40.05;5.18;;;;;;;7.65;100.00;97872.56;4941720;29;20086;-87
2022/01/03 04:24:12;;;;;;;22.02;4.03;;;;;;;7.58;100.00;97885.66;4947465;29;20083;-85
2022/01/03 04:26:43;;;;;;;29.40;4.30;;;;;;;7.63;100.00;97879.81;4946811;29;20090;-86
2022/01/03 04:29:14;;;;;;;29.23;4.63;;;;;;;7.68;100.00;97872.97;4926449;29;20055;-86
2022/01/03 04:31:40;;;;;;;31.58;4.55;;;;;;;7.78;100.00;97887.44;4942180;29;20031;-85
2022/01/03 04:34:13;;;;;;;28.38;6.32;;;;;;;7.80;100.00;97873.16;4943001;29;20398;-86
2022/01/03 04:36:39;;;;;;;23.52;4.60;;;;;;;7.84;100.00;97876.94;4940626;29;20487;-87
2022/01/03 04:39:06;;;;;;;24.10;4.18;;;;;;;7.71;100.00;97869.16;4932392;29;20118;-86
2022/01/03 04:41:33;;;;;;;30.20;4.32;;;;;;;7.59;100.00;97874.22;4930320;29;20033;-87
2022/01/03 04:44:00;;;;;;;29.58;4.13;;;;;;;7.55;100.00;97873.00;4941744;28;20072;-86
2022/01/03 04:46:27;;;;;;;23.95;5.13;;;;;;;7.56;100.00;97877.22;4947832;29;20038;-87
2022/01/03 04:48:53;;;;;;;26.20;4.32;;;;;;;7.60;100.00;97867.16;4941191;29;20482;-87
2022/01/03 04:51:19;;;;;;;30.88;4.28;;;;;;;7.61;100.00;97868.78;4943624;29;20096;-86
2022/01/03 04:53:45;;;;;;;22.38;3.63;;;;;;;7.41;100.00;97846.94;4926555;29;20114;-86
2022/01/03 04:56:13;;;;;;;23.70;4.18;;;;;;;7.36;100.00;97853.75;4926974;29;20099;-86
2022/01/03 04:58:39;;;;;;;21.58;3.78;;;;;;;7.32;100.00;97873.44;4943771;29;20470;-87
2022/01/03 05:01:05;;;;;;;25.13;3.97;;;;;;;7.34;100.00;97855.75;4947204;29;20082;-88
2022/01/03 05:03:32;;;;;;;27.15;4.72;;;;;;;7.09;100.00;97823.25;4924955;29;20123;-87
2022/01/03 05:06:01;;;;;;;25.27;3.97;;;;;;;7.36;100.00;97861.59;4930062;29;20065;-87
2022/01/03 05:08:29;;;;;;;19.27;3.95;;;;;;;7.27;100.00;97840.94;4942814;29;20034;-86
2022/01/03 05:10:55;;;;;;;19.75;3.78;;;;;;;7.41;100.00;97861.78;4927891;29;20079;-85
2022/01/03 05:13:21;;;;;;;25.20;3.90;;;;;;;7.33;100.00;97831.47;4946356;29;20094;-86
2022/01/03 05:15:47;;;;;;;25.08;5.25;;;;;;;7.37;100.00;97855.34;4926811;29;20039;-86
2022/01/03 05:18:13;;;;;;;21.92;3.47;;;;;;;7.33;100.00;97860.16;4942357;29;20023;-86
2022/01/03 05:20:39;;;;;;;19.33;4.53;;;;;;;7.31;100.00;97856.19;4927796;29;20039;-88
2022/01/03 05:23:05;;;;;;;22.33;4.13;;;;;;;7.22;100.00;97856.38;4926937;29;20027;-87
2022/01/03 05:25:31;;;;;;;31.15;4.68;;;;;;;7.15;100.00;97853.75;4946646;29;20031;-88
2022/01/03 05:27:56;;;;;;;23.80;3.70;;;;;;;6.94;100.00;97851.34;4931074;29;20043;-87
2022/01/03 05:30:22;;;;;;;22.13;4.30;;;;;;;6.93;100.00;97853.16;4926558;29;20032;-88
2022/01/03 05:32:48;;;;;;;27.42;3.97;;;;;;;6.89;100.00;97854.59;4926578;29;20042;-87
2022/01/03 05:35:13;;;;;;;23.83;5.55;;;;;;;6.87;100.00;97861.78;4949974;29;20039;-86
2022/01/03 05:37:39;;;;;;;25.50;4.35;;;;;;;6.83;100.00;97861.38;4948787;29;20027;-86
2022/01/03 05:40:06;;;;;;;21.50;4.90;;;;;;;6.88;100.00;97873.03;4950567;29;20035;-86
2022/01/03 05:42:32;;;;;;;23.02;4.03;;;;;;;6.88;100.00;97863.41;4931155;29;20049;-86
2022/01/03 05:44:58;;;;;;;22.15;3.97;;;;;;;6.86;100.00;97873.22;4945445;29;20050;-85
2022/01/03 05:47:23;;;;;;;29.80;4.32;;;;;;;6.87;100.00;97851.34;4931372;29;20027;-85
2022/01/03 05:49:51;;;;;;;26.02;3.95;;;;;;;6.92;100.00;97854.19;4947619;29;20031;-85
2022/01/03 05:52:18;;;;;;;23.02;4.68;;;;;;;6.90;100.00;97860.59;4945200;29;20035;-84
2022/01/03 05:54:44;;;;;;;26.90;4.43;;;;;;;6.69;100.00;97850.16;4951455;29;20039;-87
2022/01/03 05:57:09;;;;;;;21.77;5.57;;;;;;;6.70;100.00;97836.09;4929857;29;20039;-86
2022/01/03 05:59:35;;;;;;;29.52;5.88;;;;;;;6.97;100.00;97872.63;4932077;29;20482;-86
2022/01/03 06:02:03;;;;;;;24.38;4.82;;;;;;;6.84;100.00;97838.69;4934803;29;20067;-87
2022/01/03 06:04:41;;;;;;;29.17;4.88;;;;;;;7.00;100.00;97861.00;4946515;29;20483;-85
2022/01/03 06:07:08;;;;;;;26.60;4.00;;;;;;;7.07;100.00;97863.59;4945359;29;20529;-87
2022/01/03 06:09:35;;;;;;;28.27;5.97;;;;;;;7.04;100.00;97843.94;4948287;29;20035;-87
2022/01/03 06:12:01;;;;;;;24.95;4.45;;;;;;;7.23;100.00;97860.59;4927955;29;20561;-87
2022/01/03 06:14:27;;;;;;;26.60;4.88;;;;;;;7.25;100.00;97855.16;4931880;29;20504;-85
2022/01/03 06:16:54;;;;;;;28.02;4.57;;;;;;;7.22;100.00;97843.31;4930089;29;20039;-85
2022/01/03 06:19:21;;;;;;;25.67;4.72;;;;;;;7.09;100.00;97838.91;4943129;29;20482;-85
2022/01/03 06:21:47;;;;;;;23.77;4.20;;;;;;;7.07;100.00;97840.09;4947342;29;20043;-86
2022/01/03 06:24:18;;;;;;;30.05;5.63;;;;;;;6.93;100.00;97818.44;4925256;29;20030;-86
2022/01/03 06:26:44;;;;;;;33.75;4.40;;;;;;;6.99;100.00;97826.28;4930354;29;20046;-86
2022/01/03 06:29:12;;;;;;;21.20;4.40;;;;;;;6.94;100.00;97836.50;4925293;29;20035;-85
2022/01/03 06:31:39;;;;;;;27.52;4.40;;;;;;;7.00;100.00;97827.88;4944661;29;20031;-87
2022/01/03 06:34:05;;;;;;;29.23;4.88;;;;;;;6.95;100.00;97827.69;4944376;29;20528;-87
2022/01/03 06:36:31;;;;;;;26.15;4.28;;;;;;;6.98;100.00;97819.44;4931853;29;20035;-85
2022/01/03 06:38:57;;;;;;;26.48;4.32;;;;;;;6.91;100.00;97810.84;4946257;29;20377;-85
2022/01/03 06:41:24;;;;;;;22.58;3.95;;;;;;;6.93;100.00;97823.66;4945302;28;20524;-85
2022/01/03 06:43:50;;;;;;;25.40;5.10;;;;;;;6.95;100.00;97812.03;4948116;29;20047;-85
2022/01/03 06:46:16;;;;;;;27.02;4.18;;;;;;;6.99;100.00;97818.44;4925714;29;20050;-86
2022/01/03 06:48:43;;;;;;;22.17;4.35;;;;;;;6.90;100.00;97808.41;4948347;29;20074;-85
2022/01/03 06:51:09;;;;;;;23.98;4.25;;;;;;;6.86;100.00;97802.78;4943092;29;20055;-85
2022/01/03 06:53:36;;;;;;;21.92;3.95;;;;;;;6.88;100.00;97811.25;4943894;29;20036;-85
2022/01/03 06:56:02;;;;;;;23.10;4.65;;;;;;;6.84;100.00;97799.56;4946975;29;20067;-85
2022/01/03 06:58:28;;;;;;;19.88;4.45;;;;;;;6.83;100.00;97809.22;4925605;29;20482;-86
2022/01/03 07:00:54;;;;;;;24.63;4.07;;;;;;;6.77;100.00;97801.41;4949128;29;20046;-85
2022/01/03 07:03:19;;;;;;;27.80;5.15;;;;;;;6.70;100.00;97804.00;4946508;29;20035;-85
2022/01/03 07:05:45;;;;;;;27.17;4.95;;;;;;;6.68;100.00;97796.38;4931509;29;20053;-87
2022/01/03 07:08:11;;;;;;;24.83;4.80;;;;;;;6.71;100.00;97821.25;4947000;29;20086;-85
2022/01/03 07:10:38;;;;;;;18.55;3.53;;;;;;;6.64;100.00;97810.00;4929566;29;20035;-86
2022/01/03 07:13:04;;;;;;;22.17;4.22;;;;;;;6.63;100.00;97777.91;4933478;29;20035;-84
2022/01/03 07:20:58;;;;;;;19.98;4.03;;;;;;;6.84;100.00;97795.19;4944662;29;20031;-88
2022/01/03 07:23:23;;;;;;;24.27;3.63;;;;;;;6.80;100.00;97782.72;4949165;29;20603;-86
2022/01/03 07:25:50;;;;;;;18.33;3.53;;;;;;;6.90;100.00;97788.38;4933485;29;20039;-86
2022/01/03 07:28:17;;;;;;;25.02;4.20;;;;;;;7.04;100.00;97803.97;4948019;29;20034;-88
2022/01/03 07:30:44;;;;;;;20.40;3.78;;;;;;;7.00;100.00;97793.97;4947056;29;20125;-89
2022/01/03 07:33:10;;;;;;;31.45;3.72;;;;;;;6.97;100.00;97793.56;4944238;29;20546;-86
2022/01/03 07:35:36;;;;;;;18.85;3.70;;;;;;;6.85;100.00;97785.53;4951889;29;20046;-87
2022/01/03 07:38:03;;;;;;;19.13;4.10;;;;;;;6.87;100.00;97788.75;4945271;28;20023;-88
2022/01/03 07:40:29;;;;;;;21.30;3.35;;;;;;;6.65;100.00;97773.28;4959608;29;20042;-86
2022/01/03 07:42:55;;;;;;;18.52;3.88;;;;;;;6.69;100.00;97776.31;4926880;29;20039;-87
2022/01/03 07:45:21;;;;;;;19.00;3.88;;;;;;;6.71;100.00;97777.72;4948192;29;20082;-84
2022/01/03 07:47:47;;;;;;;18.80;3.20;;;;;;;6.52;100.00;97763.66;4946853;29;20027;-87
2022/01/03 07:50:13;;;;;;;23.77;3.63;;;;;;;6.60;100.00;97770.50;4935986;29;20042;-84
2022/01/03 07:52:39;;;;;;;24.92;3.33;;;;;;;6.48;100.00;97751.22;4957255;28;20394;-86
2022/01/03 07:55:07;;;;;;;19.05;3.30;;;;;;;6.63;100.00;97770.09;4944240;29;20023;-87
2022/01/03 07:57:33;;;;;;;16.50;2.85;;;;;;;6.54;100.00;97758.25;4930171;29;20109;-87
2022/01/03 07:59:58;;;;;;;20.08;2.90;;;;;;;6.74;100.00;97755.66;4945772;29;20035;-85
2022/01/03 08:02:24;;;;;;;19.70;3.03;;;;;;;6.55;100.00;97750.22;4951808;29;20028;-86
2022/01/03 08:04:50;;;;;;;16.85;2.83;;;;;;;6.48;100.00;97735.59;4934887;29;20486;-86
2022/01/03 08:07:15;;;;;;;19.75;3.88;;;;;;;6.66;100.00;97782.72;4942604;29;20421;-85
2022/01/03 08:09:41;;;;;;;18.17;2.75;;;;;;;6.53;100.00;97747.03;4933686;29;20482;-86
2022/01/03 08:12:07;;;;;;;15.82;2.83;;;;;;;6.67;100.00;97758.25;4931176;29;20035;-86
2022/01/03 08:14:33;;;;;;;15.77;3.38;;;;;;;6.47;100.00;97726.16;4925146;29;20039;-85
2022/01/03 08:16:59;;;;;;;11.90;2.45;;;;;;;6.57;100.00;97747.44;4942453;29;20027;-87
2022/01/03 08:19:24;;;;;;;15.05;2.53;;;;;;;6.51;100.00;97753.47;4942059;29;20031;-84
2022/01/03 08:21:50;;;;;;;12.95;2.50;;;;;;;6.53;100.00;97738.41;4931634;29;20085;-86
2022/01/03 08:24:18;;;;;;;17.63;2.45;;;;;;;6.56;100.00;97753.66;4947150;29;20493;-86
2022/01/03 08:26:44;;;;;;;15.45;2.58;;;;;;;6.43;100.00;97741.41;4930208;29;20043;-85
2022/01/03 08:29:10;;;;;;;20.20;3.25;;;;;;;6.44;100.00;97763.88;4946539;28;20031;-83
2022/01/03 08:31:38;;;;;;;17.15;2.67;;;;;;;6.36;100.00;97751.84;4942377;29;20032;-85
2022/01/03 08:34:04;;;;;;;17.58;2.88;;;;;;;6.29;100.00;97744.00;4945656;29;20042;-88
2022/01/03 08:36:30;;;;;;;16.17;2.53;;;;;;;6.35;100.00;97747.63;4943633;29;20085;-84
2022/01/03 08:38:56;;;;;;;22.30;2.95;;;;;;;6.34;100.00;97746.03;4926533;29;20063;-86
2022/01/03 08:41:22;;;;;;;10.40;2.63;;;;;;;6.34;100.00;97727.78;4923190;29;20042;-87
2022/01/03 08:43:47;;;;;;;21.35;2.60;;;;;;;6.36;100.00;97720.56;4943116;29;20055;-84
2022/01/03 08:46:13;;;;;;;14.63;2.88;;;;;;;6.36;100.00;97736.19;4928817;29;20050;-86
2022/01/03 08:48:39;;;;;;;16.55;2.58;;;;;;;6.48;100.00;97719.94;4945570;29;20102;-85
2022/01/03 08:51:06;;;;;;;18.33;2.83;;;;;;;6.49;100.00;97722.34;4932305;29;20038;-87
2022/01/03 08:53:35;;;;;;;16.90;2.80;;;;;;;6.46;100.00;97724.56;4927069;29;20035;-86
2022/01/03 08:56:02;;;;;;;15.40;3.38;;;;;;;6.48;100.00;97717.34;4925991;29;20036;-86
2022/01/03 08:58:28;;;;;;;13.90;2.58;;;;;;;6.53;100.00;97735.81;4941656;29;20098;-86
2022/01/03 09:00:54;;;;;;;14.10;3.42;;;;;;;6.47;100.00;97706.13;4944241;29;20035;-85
2022/01/03 09:03:19;;;;;;;14.80;2.50;;;;;;;6.46;100.00;97704.53;4927081;29;20486;-86
2022/01/03 09:05:46;;;;;;;17.13;3.00;;;;;;;6.42;100.00;97698.91;4936237;29;20042;-85
2022/01/03 09:08:12;;;;;;;16.33;2.88;;;;;;;6.47;100.00;97698.31;4934561;29;20031;-86
2022/01/03 09:10:39;;;;;;;19.88;2.88;;;;;;;6.56;100.00;97717.16;4937232;29;20114;-85
2022/01/03 09:13:05;;;;;;;21.67;3.05;;;;;;;6.65;100.00;97707.31;4936244;29;20039;-86
2022/01/03 09:15:32;;;;;;;23.17;3.85;;;;;;;6.62;100.00;97700.69;4956705;29;20039;-88
2022/01/03 09:17:57;;;;;;;18.83;3.20;;;;;;;6.60;100.00;97723.56;4943808;29;20041;-88
2022/01/03 09:20:25;;;;;;;14.13;2.78;;;;;;;6.55;100.00;97707.72;4938863;29;20115;-88
2022/01/03 09:22:56;;;;;;;20.90;3.33;;;;;;;6.66;100.00;97712.31;4931544;29;20035;-85
2022/01/03 09:30:36;;;;;;;9.18;2.17;;;;;;;6.67;100.00;97692.28;4951352;29;20522;-86
2022/01/03 09:33:02;;;;;;;19.33;2.83;;;;;;;6.75;100.00;97706.91;4952013;28;20497;-86
2022/01/03 09:35:28;;;;;;;15.13;2.55;;;;;;;6.74;100.00;97695.66;4953290;29;20039;-87
2022/01/03 09:37:57;;;;;;;13.55;2.65;;;;;;;6.72;100.00;97708.09;4933059;29;20031;-88
2022/01/03 09:40:23;;;;;;;15.75;3.00;;;;;;;6.67;100.00;97697.50;4934504;29;20047;-86
2022/01/03 09:42:51;;;;;;;16.10;2.63;;;;;;;6.75;100.00;97715.53;4934078;29;20038;-88
2022/01/03 09:45:17;;;;;;;9.40;2.58;;;;;;;6.75;100.00;97697.25;4955917;29;20054;-88
2022/01/03 09:47:45;;;;;;;14.07;2.45;;;;;;;6.75;100.00;97715.53;4956722;28;20043;-88
2022/01/03 09:50:14;;;;;;;14.20;2.45;;;;;;;6.83;100.00;97698.84;4939100;29;20042;-88
2022/01/03 09:52:43;;;;;;;20.08;3.22;;;;;;;6.86;100.00;97693.22;4944708;29;20031;-82
2022/01/03 09:55:11;;;;;;;19.27;2.42;;;;;;;7.12;100.00;97696.81;4964127;29;20034;-85
2022/01/03 09:57:38;;;;;;;21.15;2.95;;;;;;;7.13;100.00;97711.47;4949505;29;21202;-87
2022/01/03 10:00:06;;;;;;;18.15;2.45;;;;;;;6.98;100.00;97690.81;4937544;29;20115;-87
2022/01/03 10:02:33;;;;;;;17.88;3.40;;;;;;;7.14;100.00;97698.19;4954927;29;20034;-88
2022/01/03 10:04:59;;;;;;;18.17;2.90;;;;;;;7.13;100.00;97719.28;4932966;29;20478;-84
2022/01/03 10:07:27;;;;;;;15.32;2.80;;;;;;;7.17;100.00;97707.44;4949876;29;20050;-87
2022/01/03 10:09:55;;;;;;;19.27;3.78;;;;;;;7.26;100.00;97745.31;4935164;29;20083;-86
2022/01/03 10:12:25;;;;;;;15.63;2.90;;;;;;;7.37;100.00;97714.38;4924933;29;20020;-84
2022/01/03 10:14:50;;;;;;;14.68;2.85;;;;;;;7.33;100.00;97687.09;4927931;29;20039;-82
2022/01/03 10:17:16;;;;;;;11.82;2.60;;;;;;;7.56;100.00;97718.72;4955509;29;20031;-86
2022/01/03 10:20:04;;;;;;;19.10;3.15;;;;;;;7.58;100.00;97732.38;4952701;29;20058;-87
2022/01/03 10:22:32;;;;;;;15.38;2.95;;;;;;;7.56;100.00;97718.72;4930648;29;20036;-86
2022/01/03 10:25:08;;;;;;;15.20;2.65;;;;;;;7.69;100.00;97740.59;4963831;29;20019;-89
2022/01/03 10:27:50;;;;;;;17.67;3.28;;;;;;;7.61;100.00;97719.91;4945645;29;20044;-90
2022/01/03 10:30:38;;;;;;;18.55;3.17;;;;;;;7.76;100.00;97750.97;4935160;29;20415;-86
2022/01/03 10:33:08;;;;;;;22.88;3.33;;;;;;;7.69;100.00;97733.53;4934571;29;20035;-86
2022/01/03 10:35:42;;;;;;;25.40;4.20;;;;;;;7.81;100.00;97751.19;4937115;29;20044;-86
2022/01/03 10:38:09;;;;;;;21.92;3.28;;;;;;;7.81;100.00;97754.59;4955457;29;20505;-86
2022/01/03 10:40:36;;;;;;;15.60;3.03;;;;;;;7.74;100.00;97719.88;4940318;29;20172;-81
2022/01/03 10:43:19;;;;;;;20.70;4.03;;;;;;;7.85;100.00;97728.84;4941288;29;20095;-84
2022/01/03 10:45:46;;;;;;;23.40;3.97;;;;;;;7.75;100.00;97721.47;4939758;29;20044;-84
2022/01/03 10:48:30;;;;;;;21.00;3.50;;;;;;;7.88;100.00;97717.97;4943457;29;20036;-84
2022/01/03 10:50:57;;;;;;;19.45;4.03;;;;;;;7.90;100.00;97730.84;4940106;29;20499;-85
2022/01/03 10:53:43;;;;;;;15.65;2.95;;;;;;;7.94;100.00;97727.59;4921371;29;20043;-82
2022/01/03 10:56:29;;;;;;;29.13;2.97;;;;;;;8.00;100.00;97733.78;4937851;29;20063;-86
2022/01/03 10:59:00;;;;;;;16.92;3.58;;;;;;;8.04;100.00;97729.72;4952863;29;20063;-87
2022/01/03 11:01:32;;;;;;;14.45;3.05;;;;;;;7.91;100.00;97720.16;4959033;29;20035;-85
2022/01/03 11:04:00;;;;;;;18.52;3.95;;;;;;;7.83;100.00;97713.38;4942878;29;20031;-86
2022/01/03 11:11:42;;;;;;;21.05;3.53;;;;;;;8.12;100.00;97744.38;4960219;29;20122;-86
2022/01/03 11:14:10;;;;;;;23.48;3.95;;;;;;;8.16;100.00;97748.19;4959786;29;20031;-84
2022/01/03 11:16:40;;;;;;;16.20;2.88;;;;;;;7.96;100.00;97701.25;4959207;29;20548;-84
2022/01/03 11:19:06;;;;;;;28.02;4.25;;;;;;;8.22;100.00;97709.91;4959881;29;20027;-85
2022/01/03 11:21:33;;;;;;;20.00;3.63;;;;;;;8.06;100.00;97696.38;4945651;29;20118;-84
2022/01/03 11:24:02;;;;;;;19.70;5.05;;;;;;;8.24;100.00;97705.28;4944699;29;20071;-88
2022/01/03 11:26:30;;;;;;;17.95;3.95;;;;;;;8.32;100.00;97720.72;4942333;29;20483;-88
2022/01/03 11:28:57;;;;;;;14.20;4.30;;;;;;;8.25;100.00;97719.94;4938147;29;20036;-85
2022/01/03 11:31:23;;;;;;;19.27;3.83;;;;;;;8.14;100.00;97705.75;4939583;29;20032;-85
2022/01/03 11:33:51;;;;;;;23.08;4.30;;;;;;;8.12;100.00;97690.28;4943067;29;20075;-86
2022/01/03 11:36:19;;;;;;;20.27;3.50;;;;;;;8.11;100.00;97675.63;4948038;29;20031;-85
2022/01/03 11:38:45;;;;;;;24.35;3.53;;;;;;;8.36;100.00;97693.13;4944841;29;20414;-86
2022/01/03 11:41:12;;;;;;;18.75;3.00;;;;;;;8.03;100.00;97665.41;4949075;29;20106;-86
2022/01/03 11:43:40;;;;;;;22.77;3.63;;;;;;;8.27;100.00;97703.06;4929852;29;20062;-87
2022/01/03 11:46:07;;;;;;;24.58;3.83;;;;;;;8.09;100.00;97664.59;4948648;29;20027;-89